Home > Products > Valid Products > TAF

000
FTUS43 KLSX 242300
TAFSTL
TAF
KSTL 242320Z 2500/2606 17012G22KT P6SM VCSH BKN050 BKN100
     FM250200 15014KT 5SM -SHRA VCTS BKN030CB OVC050
     FM250700 21014KT P6SM SCT010 BKN020
     FM251500 19010KT P6SM SCT030=



000
FTUS43 KLSX 242300
TAFSUS
TAF
KSUS 242320Z 2500/2524 17012G20KT P6SM VCSH BKN050 BKN100
     FM250200 15014KT 5SM -SHRA VCTS BKN030CB OVC050
     FM250700 21014KT P6SM SCT010 BKN020
     FM251500 19010KT P6SM SCT030=



000
FTUS43 KLSX 242300
TAFCOU
TAF
KCOU 242320Z 2500/2524 17012G18KT P6SM VCSH BKN035 OVC100
     FM250100 15014KT 6SM -SHRA OVC035
     FM250600 22012KT P6SM SCT009 BKN020
     FM251300 19009KT P6SM SCT030=



000
FTUS43 KLSX 242300
TAFUIN
TAF
KUIN 242320Z 2500/2524 17018G28KT 6SM -SHRA VCTS SCT040CB BKN120
     FM250200 16014KT P6SM BKN040
     FM250600 17014KT 6SM -SHRA BKN020
     FM251000 23012KT P6SM BKN020
     FM251500 19010KT P6SM SCT030=



000
FTUS43 KLSX 242200 AAD
TAFCOU
TAF AMD
KCOU 242201Z 2422/2518 17012G18KT 6SM -SHRA VCTS BKN035CB OVC100
     FM250400 15014KT P6SM BKN020
     FM250900 22009KT P6SM SCT009 BKN020
     FM251300 19008KT P6SM SCT025=



000
FTUS43 KLSX 242200 AAD
TAFCOU
TAF AMD
KCOU 242201Z 2422/2518 17012G18KT 6SM -SHRA VCTS BKN035CB OVC100
     FM250400 15014KT P6SM BKN020
     FM250900 22009KT P6SM SCT009 BKN020
     FM251300 19008KT P6SM SCT025=



000
FTUS43 KLSX 242000 AAA
TAFSTL
TAF AMD
KSTL 242051Z 2421/2524 17015G25KT P6SM VCSH SCT060 BKN120
     FM250000 17012G20KT P6SM BKN050
     FM250200 15014KT 5SM -SHRA VCTS BKN030CB OVC050
     FM250800 20014KT P6SM SCT010 BKN020
     FM251500 18010KT P6SM SCT030=



000
FTUS43 KLSX 242000 AAC
TAFUIN
TAF AMD
KUIN 242049Z 2421/2518 17018G28KT P6SM VCTS SCT040CB BKN120
      TEMPO 2421/2423 4SM -TSRA BKN040CB
     FM250200 15014KT 5SM -SHRA VCTS BKN030CB
     FM250800 19012KT P6SM BKN020
     FM251500 22010KT P6SM SCT025=



000
FTUS43 KLSX 242000 AAC
TAFUIN
TAF AMD
KUIN 242049Z 2421/2518 17018G28KT P6SM VCTS SCT040CB BKN120
      TEMPO 2421/2423 4SM -TSRA BKN040CB
     FM250200 15014KT 5SM -SHRA VCTS BKN030CB
     FM250800 19012KT P6SM BKN020
     FM251500 22010KT P6SM SCT025=



000
FTUS43 KLSX 242000 AAC
TAFCOU
TAF AMD
KCOU 242026Z 2420/2518 16014G24KT P6SM SCT025 BKN060
      TEMPO 2420/2421 18020G40KT 4SM -TSRA OVC030CB
     FM242200 17015G25KT 6SM -SHRA VCTS BKN035CB
     FM250400 15014KT P6SM BKN020
     FM250900 22009KT P6SM SCT009 BKN020
     FM251300 19008KT P6SM SCT025=



000
FTUS43 KLSX 241900 AAB
TAFCOU
TAF AMD
KCOU 241932Z 2420/2518 16014G24KT P6SM SCT025 BKN060
      TEMPO 2420/2421 4SM -TSRA OVC030CB
     FM242200 17015G25KT 6SM -SHRA VCTS BKN035CB
     FM250400 15014KT P6SM BKN020
     FM250900 22009KT P6SM SCT009 BKN020
     FM251300 19008KT P6SM SCT025=



000
FTUS43 KLSX 241900 AAB
TAFCOU
TAF AMD
KCOU 241932Z 2420/2518 16014G24KT P6SM SCT025 BKN060
      TEMPO 2420/2421 4SM -TSRA OVC030CB
     FM242200 17015G25KT 6SM -SHRA VCTS BKN035CB
     FM250400 15014KT P6SM BKN020
     FM250900 22009KT P6SM SCT009 BKN020
     FM251300 19008KT P6SM SCT025=



000
FTUS43 KLSX 241800 AAB
TAFUIN
TAF AMD
KUIN 241853Z 2419/2518 17018G28KT P6SM VCTS SCT040CB BKN120
      TEMPO 2419/2420 4SM -TSRA
     FM242100 17018G28KT P6SM SCT060 BKN120
     FM250200 15014KT 5SM -SHRA VCTS BKN030CB
     FM250800 19012KT P6SM BKN020
     FM251500 22010KT P6SM SCT025=



000
FTUS43 KLSX 241800 AAA
TAFUIN
TAF AMD
KUIN 241836Z 2419/2518 17018G28KT P6SM VCTS SCT040CB BKN120
     FM242100 17018G28KT P6SM SCT060 BKN120
     FM250200 15014KT 5SM -SHRA VCTS BKN030CB
     FM250800 19012KT P6SM BKN020
     FM251500 22010KT P6SM SCT025=



000
FTUS43 KLSX 241800 AAA
TAFCOU
TAF AMD
KCOU 241826Z 2418/2518 16014G24KT P6SM SCT025 BKN060
      TEMPO 2418/2419 4SM -TSRA BKN030CB
     FM242200 17015G25KT 6SM -SHRA VCTS BKN035CB
     FM250400 15014KT P6SM BKN020
     FM250900 22009KT P6SM SCT009 BKN020
     FM251300 19008KT P6SM SCT025=



000
FTUS43 KLSX 241800 AAA
TAFCOU
TAF AMD
KCOU 241826Z 2418/2518 16014G24KT P6SM SCT025 BKN060
      TEMPO 2418/2419 4SM -TSRA BKN030CB
     FM242200 17015G25KT 6SM -SHRA VCTS BKN035CB
     FM250400 15014KT P6SM BKN020
     FM250900 22009KT P6SM SCT009 BKN020
     FM251300 19008KT P6SM SCT025=



000
FTUS43 KLSX 241700
TAFCOU
TAF
KCOU 241720Z 2418/2518 16014G24KT P6SM SCT025 BKN060
     FM242200 17015G25KT 6SM -SHRA VCTS BKN035CB
     FM250400 15014KT P6SM BKN020
     FM250900 22009KT P6SM SCT009 BKN020
     FM251300 19008KT P6SM SCT025=



000
FTUS43 KLSX 241700
TAFUIN
TAF
KUIN 241720Z 2418/2518 17018G28KT P6SM SCT060 BKN120
     FM250200 15014KT 5SM -SHRA VCTS BKN030CB
     FM250800 19012KT P6SM BKN020
     FM251500 22010KT P6SM SCT025=



000
FTUS43 KLSX 241700
TAFSUS
TAF
KSUS 241720Z 2418/2518 17014G24KT P6SM SCT060 BKN120
     FM250000 17012G20KT P6SM BKN050
     FM250200 15014KT 5SM -SHRA VCTS BKN030CB OVC050
     FM250800 20014KT P6SM SCT010 BKN020
     FM251500 18010KT P6SM SCT030=



000
FTUS43 KLSX 241700
TAFSTL
TAF
KSTL 241720Z 2418/2524 17015G25KT P6SM SCT060 BKN120
     FM250000 17012G20KT P6SM BKN050
     FM250200 15014KT 5SM -SHRA VCTS BKN030CB OVC050
     FM250800 20014KT P6SM SCT010 BKN020
     FM251500 18010KT P6SM SCT030=



000
FTUS43 KLSX 241400 AAA
TAFSTL
TAF AMD
KSTL 241454Z 2415/2518 16012G18KT P6SM OVC150
     FM241700 16015G25KT P6SM SCT030 BKN060
     FM250000 17014G25KT 6SM -SHRA VCTS BKN040CB
     FM250600 15014KT P6SM SCT010 BKN020=



000
FTUS43 KLSX 241400 AAA
TAFUIN
TAF AMD
KUIN 241412Z 2414/2512 14012KT P6SM BKN050
      TEMPO 2415/2417 4SM -SHRA OVC035
     FM241800 17015G25KT P6SM BKN040
     FM250000 15014KT 6SM -SHRA VCTS BKN035CB
     FM250700 18012KT P6SM BKN020=



000
FTUS43 KLSX 241100
TAFCOU
TAF
KCOU 241130Z 2412/2512 11008KT P6SM SCT050 OVC080
     FM241400 16014G24KT P6SM SCT025 BKN060
      TEMPO 2414/2417 6SM -SHRA
     FM242100 17015G25KT 6SM -SHRA VCTS BKN035CB
     FM250300 15014KT P6SM BKN020
     FM250900 21009KT P6SM SCT030 BKN150=



000
FTUS43 KLSX 241100
TAFSUS
TAF
KSUS 241130Z 2412/2512 12007KT P6SM OVC150
     FM241400 16012KT P6SM OVC150
     FM241700 16014G24KT P6SM BKN040
     FM250000 15012G20KT 6SM -SHRA VCTS BKN040CB
     FM250600 15014KT P6SM SCT010 BKN020=



000
FTUS43 KLSX 241100
TAFCOU
TAF
KCOU 241130Z 2412/2512 11008KT P6SM SCT050 OVC080
     FM241400 16014G24KT P6SM SCT025 BKN060
      TEMPO 2414/2417 6SM -SHRA
     FM242100 17015G25KT 6SM -SHRA VCTS BKN035CB
     FM250300 15014KT P6SM BKN020
     FM250900 21009KT P6SM SCT030 BKN150=



000
FTUS43 KLSX 241100
TAFSUS
TAF
KSUS 241130Z 2412/2512 12007KT P6SM OVC150
     FM241400 16012KT P6SM OVC150
     FM241700 16014G24KT P6SM BKN040
     FM250000 15012G20KT 6SM -SHRA VCTS BKN040CB
     FM250600 15014KT P6SM SCT010 BKN020=



000
FTUS43 KLSX 241100
TAFSTL
TAF
KSTL 241130Z 2412/2518 12009KT P6SM OVC150
     FM241400 16012KT P6SM OVC150
     FM241700 16015G25KT P6SM SCT030 BKN060
     FM250000 17014G25KT 6SM -SHRA VCTS BKN040CB
     FM250600 15014KT P6SM SCT010 BKN020=



000
FTUS43 KLSX 241100
TAFUIN
TAF
KUIN 241130Z 2412/2512 08007KT P6SM BKN050
     FM241400 14012KT P6SM BKN050
     FM241800 17015G25KT P6SM BKN040
     FM250000 15014KT 6SM -SHRA VCTS BKN035CB
     FM250700 18012KT P6SM BKN020=



000
FTUS43 KLSX 241100
TAFSTL
TAF
KSTL 241130Z 2412/2518 12009KT P6SM OVC150
     FM241400 16012KT P6SM OVC150
     FM241700 16015G25KT P6SM SCT030 BKN060
     FM250000 17014G25KT 6SM -SHRA VCTS BKN040CB
     FM250600 15014KT P6SM SCT010 BKN020=



000
FTUS43 KLSX 241100
TAFUIN
TAF
KUIN 241130Z 2412/2512 08007KT P6SM BKN050
     FM241400 14012KT P6SM BKN050
     FM241800 17015G25KT P6SM BKN040
     FM250000 15014KT 6SM -SHRA VCTS BKN035CB
     FM250700 18012KT P6SM BKN020=



000
FTUS43 KLSX 241000 AAB
TAFUIN
TAF AMD
KUIN 241016Z 2410/2506 08007KT P6SM BKN080
      TEMPO 2410/2412 6SM -SHRA
     FM241500 14012KT P6SM VCSH BKN050
     FM241800 17015G25KT P6SM BKN025
     FM250000 15014KT 6SM -SHRA VCTS BKN030CB=



000
FTUS43 KLSX 240900 AAA
TAFSUS
TAF AMD
KSUS 240903Z 2409/2506 11004KT P6SM OVC150
     FM241400 16012KT P6SM OVC150
     FM241700 16014G24KT P6SM BKN040
     FM250000 15012KT 6SM -SHRA VCTS BKN040CB=



000
FTUS43 KLSX 240800 AAA
TAFSTL
TAF AMD
KSTL 240858Z 2409/2512 12008KT P6SM OVC150
     FM241400 16012KT P6SM OVC150
     FM241700 16015G25KT P6SM BKN040
     FM250000 15014KT 6SM -SHRA VCTS BKN040CB
     FM250600 18014KT P6SM BKN030=



000
FTUS43 KLSX 240800 AAA
TAFCOU
TAF AMD
KCOU 240810Z 2408/2506 10008KT P6SM SCT050 OVC080
     FM241500 16014G24KT P6SM BKN025
     FM242100 15015G25KT 6SM -SHRA VCTS BKN030CB
     FM250300 15014KT P6SM BKN030=



000
FTUS43 KLSX 240700 AAA
TAFUIN
TAF AMD
KUIN 240710Z 2407/2506 13007KT P6SM BKN060
      TEMPO 2408/2410 6SM -SHRA
     FM241200 14012KT P6SM VCSH BKN040
     FM241800 17015G25KT P6SM BKN025
     FM250000 15014KT 6SM -SHRA VCTS BKN030CB=



000
FTUS43 KLSX 240700 AAA
TAFUIN
TAF AMD
KUIN 240710Z 2407/2506 13007KT P6SM BKN060
      TEMPO 2408/2410 6SM -SHRA
     FM241200 14012KT P6SM VCSH BKN040
     FM241800 17015G25KT P6SM BKN025
     FM250000 15014KT 6SM -SHRA VCTS BKN030CB=



000
FTUS43 KLSX 240500
TAFUIN
TAF
KUIN 240520Z 2406/2506 13007KT P6SM BKN060
     FM241200 14012KT P6SM VCSH BKN040
     FM241800 17015G25KT P6SM BKN025
     FM250000 15014KT 6SM -SHRA VCTS BKN030CB=



000
FTUS43 KLSX 240500
TAFCOU
TAF
KCOU 240520Z 2406/2506 13008KT P6SM SCT050 OVC080
      TEMPO 2406/2410 6SM -SHRA
     FM241500 16014G24KT P6SM BKN025
     FM242100 15015G25KT 6SM -SHRA VCTS BKN030CB
     FM250300 15014KT P6SM BKN030=



000
FTUS43 KLSX 240500
TAFSTL
TAF
KSTL 240520Z 2406/2512 13008KT P6SM BKN100
     FM241500 16015G25KT P6SM BKN040
     FM250000 15014KT 6SM -SHRA VCTS BKN040CB
     FM250600 18014KT P6SM BKN030=



000
FTUS43 KLSX 240500
TAFSUS
TAF
KSUS 240520Z 2406/2506 13006KT P6SM BKN100
     FM241500 16014G24KT P6SM BKN040
     FM250000 15012KT 6SM -SHRA VCTS BKN040CB=



000
FTUS43 KLSX 240500
TAFSTL
TAF
KSTL 240520Z 2406/2512 13008KT P6SM BKN100
     FM241500 16015G25KT P6SM BKN040
     FM250000 15014KT 6SM -SHRA VCTS BKN040CB
     FM250600 18014KT P6SM BKN030=



000
FTUS43 KLSX 240500
TAFSUS
TAF
KSUS 240520Z 2406/2506 13006KT P6SM BKN100
     FM241500 16014G24KT P6SM BKN040
     FM250000 15012KT 6SM -SHRA VCTS BKN040CB=



000
FTUS43 KLSX 240500
TAFCOU
TAF
KCOU 240520Z 2406/2506 13008KT P6SM SCT050 OVC080
      TEMPO 2406/2410 6SM -SHRA
     FM241500 16014G24KT P6SM BKN025
     FM242100 15015G25KT 6SM -SHRA VCTS BKN030CB
     FM250300 15014KT P6SM BKN030=



000
FTUS43 KLSX 240500
TAFUIN
TAF
KUIN 240520Z 2406/2506 13007KT P6SM BKN060
     FM241200 14012KT P6SM VCSH BKN040
     FM241800 17015G25KT P6SM BKN025
     FM250000 15014KT 6SM -SHRA VCTS BKN030CB=



000
FTUS43 KLSX 240300 AAA
TAFSTL
TAF AMD
KSTL 240302Z 2403/2506 14008KT P6SM BKN080
     FM241500 16014G24KT P6SM BKN050
     FM242000 17014G24KT P6SM VCTS BKN040CB=



000
FTUS43 KLSX 240300 AAA
TAFSTL
TAF AMD
KSTL 240302Z 2403/2506 14008KT P6SM BKN080
     FM241500 16014G24KT P6SM BKN050
     FM242000 17014G24KT P6SM VCTS BKN040CB=



000
FTUS43 KLSX 232300
TAFSUS
TAF
KSUS 232340Z 2400/2424 14007KT P6SM BKN080
     FM241500 16013G23KT P6SM BKN050
     FM242000 17013G23KT P6SM VCTS BKN040CB=



000
FTUS43 KLSX 232300
TAFSUS
TAF
KSUS 232340Z 2400/2424 14007KT P6SM BKN080
     FM241500 16013G23KT P6SM BKN050
     FM242000 17013G23KT P6SM VCTS BKN040CB=



000
FTUS43 KLSX 232300
TAFCOU
TAF
KCOU 232340Z 2400/2424 13008KT P6SM SCT050 OVC080
     FM240900 13010KT 6SM -SHRA BKN040
     FM241500 16014G24KT P6SM VCTS BKN025CB=



000
FTUS43 KLSX 232300
TAFUIN
TAF
KUIN 232340Z 2400/2424 15008KT P6SM BKN100
     FM240100 14007KT P6SM BKN080
     FM241200 15012G22KT 6SM -SHRA VCTS BKN040CB
     FM241800 17015G25KT P6SM VCTS BKN025CB=



000
FTUS43 KLSX 232300
TAFSTL
TAF
KSTL 232340Z 2400/2506 14009KT P6SM BKN080
     FM241500 16014G24KT P6SM BKN050
     FM242000 17014G24KT P6SM VCTS BKN040CB=



000
FTUS43 KLSX 232300
TAFUIN
TAF
KUIN 232340Z 2400/2424 15008KT P6SM BKN100
     FM240100 14007KT P6SM BKN080
     FM241200 15012G22KT 6SM -SHRA VCTS BKN040CB
     FM241800 17015G25KT P6SM VCTS BKN025CB=



000
FTUS43 KLSX 232300
TAFCOU
TAF
KCOU 232340Z 2400/2424 13008KT P6SM SCT050 OVC080
     FM240900 13010KT 6SM -SHRA BKN040
     FM241500 16014G24KT P6SM VCTS BKN025CB=



000
FTUS43 KLSX 232300
TAFSTL
TAF
KSTL 232340Z 2400/2506 14009KT P6SM BKN080
     FM241500 16014G24KT P6SM BKN050
     FM242000 17014G24KT P6SM VCTS BKN040CB=



000
FTUS43 KLSX 232100 AAA
TAFCOU
TAF AMD
KCOU 232116Z 2321/2418 16009KT P6SM OVC060
     FM240000 12007KT P6SM OVC080
     FM240900 13008KT P6SM VCTS BKN035CB OVC080
     FM241300 16012G20KT 4SM -SHRA OVC025=



000
FTUS43 KLSX 231700
TAFCOU
TAF
KCOU 231720Z 2318/2418 16009KT P6SM VCSH OVC060
     FM232100 16009KT P6SM OVC060
     FM240000 12007KT P6SM OVC080
     FM240900 13008KT P6SM VCTS BKN035CB OVC080
     FM241300 16012G20KT 4SM -SHRA OVC025=



000
FTUS43 KLSX 231700
TAFSUS
TAF
KSUS 231720Z 2318/2418 16009KT P6SM BKN100
     FM240000 12007KT P6SM BKN080
     FM241500 16012G18KT P6SM BKN050=



000
FTUS43 KLSX 231700
TAFSTL
TAF
KSTL 231720Z 2318/2424 15012G18KT P6SM BKN100
     FM240000 12007KT P6SM BKN080
     FM241400 16012G18KT P6SM BKN050
     FM242000 16012G18KT P6SM VCTS SCT035CB BKN120=



000
FTUS43 KLSX 231700
TAFUIN
TAF
KUIN 231720Z 2318/2418 17008KT P6SM BKN100
     FM240100 12005KT P6SM BKN070
     FM241600 16014G24KT 6SM -SHRA SCT035 BKN070=



000
FTUS43 KLSX 231700
TAFSTL
TAF
KSTL 231720Z 2318/2424 15012G18KT P6SM BKN100
     FM240000 12007KT P6SM BKN080
     FM241400 16012G18KT P6SM BKN050
     FM242000 16012G18KT P6SM VCTS SCT035CB BKN120=



000
FTUS43 KLSX 231700
TAFUIN
TAF
KUIN 231720Z 2318/2418 17008KT P6SM BKN100
     FM240100 12005KT P6SM BKN070
     FM241600 16014G24KT 6SM -SHRA SCT035 BKN070=



000
FTUS43 KLSX 231700
TAFCOU
TAF
KCOU 231720Z 2318/2418 16009KT P6SM VCSH OVC060
     FM232100 16009KT P6SM OVC060
     FM240000 12007KT P6SM OVC080
     FM240900 13008KT P6SM VCTS BKN035CB OVC080
     FM241300 16012G20KT 4SM -SHRA OVC025=



000
FTUS43 KLSX 231700
TAFSUS
TAF
KSUS 231720Z 2318/2418 16009KT P6SM BKN100
     FM240000 12007KT P6SM BKN080
     FM241500 16012G18KT P6SM BKN050=



000
FTUS43 KLSX 231400 AAA
TAFSTL
TAF AMD
KSTL 231453Z 2315/2418 15006KT P6SM BKN100
     FM240000 12007KT P6SM BKN080=



000
FTUS43 KLSX 231100
TAFUIN
TAF
KUIN 231131Z 2312/2412 VRB04KT P6SM BKN100
     FM231500 17008KT P6SM BKN100
     FM240000 12005KT P6SM BKN070=



000
FTUS43 KLSX 231100
TAFCOU
TAF
KCOU 231131Z 2312/2412 12005KT P6SM OVC080
     FM231500 16009KT P6SM SCT040 OVC080
     FM240000 12007KT P6SM OVC080
     FM240900 12007KT P6SM VCTS BKN035CB OVC080=



000
FTUS43 KLSX 231100
TAFSTL
TAF
KSTL 231131Z 2312/2418 16006KT P6SM BKN100
     FM240000 12007KT P6SM BKN080=



000
FTUS43 KLSX 231100
TAFSUS
TAF
KSUS 231131Z 2312/2412 16006KT P6SM BKN100
     FM240000 12007KT P6SM BKN080=



000
FTUS43 KLSX 231100
TAFCOU
TAF
KCOU 231131Z 2312/2412 12005KT P6SM OVC080
     FM231500 16009KT P6SM SCT040 OVC080
     FM240000 12007KT P6SM OVC080
     FM240900 12007KT P6SM VCTS BKN035CB OVC080=



000
FTUS43 KLSX 231100
TAFSUS
TAF
KSUS 231131Z 2312/2412 16006KT P6SM BKN100
     FM240000 12007KT P6SM BKN080=



000
FTUS43 KLSX 231100
TAFSTL
TAF
KSTL 231131Z 2312/2418 16006KT P6SM BKN100
     FM240000 12007KT P6SM BKN080=



000
FTUS43 KLSX 231100
TAFUIN
TAF
KUIN 231131Z 2312/2412 VRB04KT P6SM BKN100
     FM231500 17008KT P6SM BKN100
     FM240000 12005KT P6SM BKN070=



000
FTUS43 KLSX 230900 AAA
TAFSTL
TAF AMD
KSTL 230900Z 2309/2412 VRB02KT P6SM BKN100
     FM231300 16006KT P6SM BKN100
     FM231800 15009KT P6SM BKN080=



000
FTUS43 KLSX 230500
TAFCOU
TAF
KCOU 230520Z 2306/2406 VRB04KT P6SM OVC080
     FM231500 16009KT P6SM SCT040 OVC080=



000
FTUS43 KLSX 230500
TAFUIN
TAF
KUIN 230520Z 2306/2406 VRB04KT P6SM BKN100
     FM231500 17008KT P6SM BKN100=



000
FTUS43 KLSX 230500
TAFSTL
TAF
KSTL 230520Z 2306/2412 VRB04KT P6SM BKN100
     FM231300 16006KT P6SM BKN100
     FM231800 15009KT P6SM BKN080=



000
FTUS43 KLSX 230500
TAFSUS
TAF
KSUS 230520Z 2306/2406 VRB03KT P6SM BKN100
     FM231300 16005KT P6SM BKN100
     FM231800 15008KT P6SM BKN080
     FM240000 12005KT P6SM BKN080=



000
FTUS43 KLSX 230300 AAA
TAFCOU
TAF AMD
KCOU 230314Z 2303/2324 VRB04KT P6SM OVC080
      TEMPO 2303/2305 -RA
     FM231500 15008KT P6SM SCT040 BKN080=



000
FTUS43 KLSX 230300 AAA
TAFSTL
TAF AMD
KSTL 230307Z 2303/2406 VRB04KT P6SM BKN120
     FM231300 16006KT P6SM BKN100
     FM231800 15010KT P6SM BKN080=



000
FTUS43 KLSX 222300
TAFSUS
TAF
KSUS 222336Z 2300/2324 27005KT P6SM BKN120
     FM230100 VRB03KT P6SM BKN120
     FM231300 16005KT P6SM BKN100
     FM231800 15009KT P6SM BKN080=



000
FTUS43 KLSX 222300
TAFCOU
TAF
KCOU 222336Z 2300/2324 VRB04KT P6SM BKN100
     FM231500 15008KT P6SM SCT040 BKN080=



000
FTUS43 KLSX 222300
TAFSTL
TAF
KSTL 222336Z 2300/2406 27006KT P6SM BKN120
     FM230100 VRB04KT P6SM BKN120
     FM231300 16006KT P6SM BKN100
     FM231800 15010KT P6SM BKN080=



000
FTUS43 KLSX 222300
TAFUIN
TAF
KUIN 222336Z 2300/2324 23006KT P6SM BKN120
     FM230100 VRB04KT P6SM BKN120
     FM231500 17009KT P6SM BKN120=



000
FTUS43 KLSX 222300
TAFSUS
TAF
KSUS 222336Z 2300/2324 27005KT P6SM BKN120
     FM230100 VRB03KT P6SM BKN120
     FM231300 16005KT P6SM BKN100
     FM231800 15009KT P6SM BKN080=



000
FTUS43 KLSX 222300
TAFCOU
TAF
KCOU 222336Z 2300/2324 VRB04KT P6SM BKN100
     FM231500 15008KT P6SM SCT040 BKN080=



000
FTUS43 KLSX 222300
TAFSTL
TAF
KSTL 222336Z 2300/2406 27006KT P6SM BKN120
     FM230100 VRB04KT P6SM BKN120
     FM231300 16006KT P6SM BKN100
     FM231800 15010KT P6SM BKN080=



000
FTUS43 KLSX 222300
TAFUIN
TAF
KUIN 222336Z 2300/2324 23006KT P6SM BKN120
     FM230100 VRB04KT P6SM BKN120
     FM231500 17009KT P6SM BKN120=



000
FTUS43 KLSX 222000 AAA
TAFSTL
TAF AMD
KSTL 222051Z 2221/2324 25007KT P6SM BKN200
     FM230000 VRB04KT P6SM BKN120
     FM231200 16006KT P6SM BKN080=



000
FTUS43 KLSX 221700
TAFSUS
TAF
KSUS 221720Z 2218/2318 27005KT P6SM BKN250
     FM222000 VRB04KT P6SM BKN120=



000
FTUS43 KLSX 221700
TAFUIN
TAF
KUIN 221720Z 2218/2318 25005KT P6SM BKN250
     FM230000 VRB03KT P6SM BKN120=



000
FTUS43 KLSX 221700
TAFSUS
TAF
KSUS 221720Z 2218/2318 27005KT P6SM BKN250
     FM222000 VRB04KT P6SM BKN120=



000
FTUS43 KLSX 221700
TAFUIN
TAF
KUIN 221720Z 2218/2318 25005KT P6SM BKN250
     FM230000 VRB03KT P6SM BKN120=



000
FTUS43 KLSX 221700
TAFSTL
TAF
KSTL 221720Z 2218/2324 26007KT P6SM BKN250
     FM230000 VRB04KT P6SM BKN120
     FM231200 16006KT P6SM BKN080=



000
FTUS43 KLSX 221700
TAFCOU
TAF
KCOU 221720Z 2218/2318 27005KT P6SM BKN250
     FM230000 VRB04KT P6SM BKN090=



000
FTUS43 KLSX 221700
TAFCOU
TAF
KCOU 221720Z 2218/2318 27005KT P6SM BKN250
     FM230000 VRB04KT P6SM BKN090=



000
FTUS43 KLSX 221700
TAFSTL
TAF
KSTL 221720Z 2218/2324 26007KT P6SM BKN250
     FM230000 VRB04KT P6SM BKN120
     FM231200 16006KT P6SM BKN080=



000
FTUS43 KLSX 221400 AAA
TAFSTL
TAF AMD
KSTL 221452Z 2215/2318 26008KT P6SM BKN250
     FM230000 VRB04KT P6SM BKN120
     FM230600 VRB03KT P6SM BKN080=



000
FTUS43 KLSX 221100
TAFSUS
TAF
KSUS 221125Z 2212/2312 27005KT P6SM BKN250
     FM222000 VRB04KT P6SM BKN120
     FM230600 VRB03KT P6SM BKN080=



000
FTUS43 KLSX 221100
TAFUIN
TAF
KUIN 221125Z 2212/2312 29005KT P6SM BKN250
     FM230000 VRB03KT P6SM BKN120=



000
FTUS43 KLSX 221100
TAFSTL
TAF
KSTL 221125Z 2212/2318 28007KT P6SM BKN250
     FM230000 VRB04KT P6SM BKN120
     FM230600 VRB03KT P6SM BKN080=



000
FTUS43 KLSX 221100
TAFSTL
TAF
KSTL 221125Z 2212/2318 28007KT P6SM BKN250
     FM230000 VRB04KT P6SM BKN120
     FM230600 VRB03KT P6SM BKN080=



000
FTUS43 KLSX 221100
TAFUIN
TAF
KUIN 221125Z 2212/2312 29005KT P6SM BKN250
     FM230000 VRB03KT P6SM BKN120=



000
FTUS43 KLSX 221100
TAFSUS
TAF
KSUS 221125Z 2212/2312 27005KT P6SM BKN250
     FM222000 VRB04KT P6SM BKN120
     FM230600 VRB03KT P6SM BKN080=



000
FTUS43 KLSX 221100
TAFCOU
TAF
KCOU 221125Z 2212/2312 27005KT P6SM BKN250
     FM230000 VRB04KT P6SM BKN090=



000
FTUS43 KLSX 221100
TAFCOU
TAF
KCOU 221125Z 2212/2312 27005KT P6SM BKN250
     FM230000 VRB04KT P6SM BKN090=



000
FTUS43 KLSX 220900 AAA
TAFCOU
TAF AMD
KCOU 220913Z 2209/2306 28007KT P6SM SCT250
     FM221800 VRB04KT P6SM BKN120=



000
FTUS43 KLSX 220900 AAA
TAFSTL
TAF AMD
KSTL 220913Z 2209/2312 26005KT P6SM SKC
     FM221500 28008KT P6SM BKN250
     FM230000 VRB04KT P6SM BKN120
     FM230600 VRB03KT P6SM BKN070=



000
FTUS43 KLSX 220900 AAA
TAFCOU
TAF AMD
KCOU 220913Z 2209/2306 28007KT P6SM SCT250
     FM221800 VRB04KT P6SM BKN120=



000
FTUS43 KLSX 220900 AAA
TAFSTL
TAF AMD
KSTL 220913Z 2209/2312 26005KT P6SM SKC
     FM221500 28008KT P6SM BKN250
     FM230000 VRB04KT P6SM BKN120
     FM230600 VRB03KT P6SM BKN070=



000
FTUS43 KLSX 220500
TAFUIN
TAF
KUIN 220530Z 2206/2306 24006KT P6SM SKC
     FM221100 29007KT P6SM BKN250
     FM222000 VRB04KT P6SM BKN120=



000
FTUS43 KLSX 220500
TAFSTL
TAF
KSTL 220530Z 2206/2312 23004KT P6SM SKC
     FM221300 27008KT P6SM BKN250
     FM222000 VRB04KT P6SM BKN120=



000
FTUS43 KLSX 220500
TAFCOU
TAF
KCOU 220530Z 2206/2306 24005KT P6SM SKC
     FM221100 27007KT P6SM BKN250
     FM221800 VRB04KT P6SM BKN120=



000
FTUS43 KLSX 220500
TAFSUS
TAF
KSUS 220530Z 2206/2306 00000KT P6SM SKC
     FM221300 27006KT P6SM BKN250
     FM222000 VRB04KT P6SM BKN120=



000
FTUS43 KLSX 220500
TAFSTL
TAF
KSTL 220530Z 2206/2312 23004KT P6SM SKC
     FM221300 27008KT P6SM BKN250
     FM222000 VRB04KT P6SM BKN120=



000
FTUS43 KLSX 220500
TAFUIN
TAF
KUIN 220530Z 2206/2306 24006KT P6SM SKC
     FM221100 29007KT P6SM BKN250
     FM222000 VRB04KT P6SM BKN120=



000
FTUS43 KLSX 220500
TAFCOU
TAF
KCOU 220530Z 2206/2306 24005KT P6SM SKC
     FM221100 27007KT P6SM BKN250
     FM221800 VRB04KT P6SM BKN120=



000
FTUS43 KLSX 220500
TAFSUS
TAF
KSUS 220530Z 2206/2306 00000KT P6SM SKC
     FM221300 27006KT P6SM BKN250
     FM222000 VRB04KT P6SM BKN120=



000
FTUS43 KLSX 220200 AAA
TAFSTL
TAF AMD
KSTL 220258Z 2203/2306 23005KT P6SM SKC
     FM221300 29008KT P6SM BKN250
     FM222000 VRB05KT P6SM BKN200=



    US Dept of Commerce
    National Oceanic and Atmospheric Administration
    National Weather Service
    1325 East West Highway
    Silver Spring, MD 20910
    Page Author: NWS Internet Services Team
Disclaimer
Information Quality
Credits
Glossary
Privacy Policy
Freedom of Information Act (FOIA)
About Us
Career Opportunities